Time;durP1;ratioP1;P1;durP2;ratioP2;P2;SDS_P1;SDS_P2;PMS_P1;PMS_P2;Temp;Humidity;BMP_temperature;BMP_pressure;BME280_temperature;BME280_humidity;BME280_pressure;Samples;Min_cycle;Max_cycle;Signal;HPM_P1;HPM_P2
2022/11/03 00:00:31;;;;;;;3.80;2.47;;;;;;;;;;5113357;28;20800;-72
2022/11/03 00:02:58;;;;;;;3.00;2.50;;;;;;;;;;5112701;28;20985;-72
2022/11/03 00:08:10;;;;;;;4.40;2.57;;;;;;;;;;5112678;28;20431;-72
2022/11/03 00:10:37;;;;;;;6.27;2.80;;;;;;;;;;5113010;28;20460;-72
2022/11/03 00:13:04;;;;;;;10.63;3.67;;;;;;;;;;5112040;28;20451;-72
2022/11/03 00:15:33;;;;;;;5.57;2.97;;;;;;;;;;5113249;28;20460;-72
2022/11/03 00:18:00;;;;;;;4.27;3.37;;;;;;;;;;5112506;28;20800;-72
2022/11/03 00:20:27;;;;;;;5.07;2.80;;;;;;;;;;5113073;28;20538;-72
2022/11/03 00:22:54;;;;;;;4.90;3.30;;;;;;;;;;5112349;28;20838;-72
2022/11/03 00:25:21;;;;;;;4.63;2.27;;;;;;;;;;5112264;28;20456;-72
2022/11/03 00:27:54;;;;;;;6.07;2.50;;;;;;;;;;5112794;28;20451;-72
2022/11/03 00:30:21;;;;;;;6.77;3.20;;;;;;;;;;5112366;28;20831;-72
2022/11/03 00:32:50;;;;;;;5.13;2.97;;;;;;;;;;5112262;28;20456;-72
2022/11/03 00:35:17;;;;;;;6.33;3.00;;;;;;;;;;5112093;28;20454;-71
2022/11/03 00:37:44;;;;;;;7.23;3.10;;;;;;;;;;5112492;28;20458;-72
2022/11/03 00:40:12;;;;;;;4.10;2.97;;;;;;;;;;5111903;28;20485;-72
2022/11/03 00:42:39;;;;;;;6.97;2.83;;;;;;;;;;5111940;28;20495;-72
2022/11/03 00:45:06;;;;;;;11.20;3.20;;;;;;;;;;5111993;28;20798;-72
2022/11/03 00:47:33;;;;;;;3.73;2.47;;;;;;;;;;5112345;28;20539;-71
2022/11/03 00:50:02;;;;;;;5.53;2.43;;;;;;;;;;5112302;28;20471;-71
2022/11/03 00:52:29;;;;;;;4.90;3.30;;;;;;;;;;5111675;28;20454;-71
2022/11/03 00:54:56;;;;;;;3.97;2.80;;;;;;;;;;5112231;28;20543;-71
2022/11/03 00:57:23;;;;;;;3.80;2.50;;;;;;;;;;5098109;28;20532;-71
2022/11/03 00:59:50;;;;;;;6.37;3.33;;;;;;;;;;5112262;28;20448;-71
2022/11/03 01:02:18;;;;;;;8.20;2.33;;;;;;;;;;5111323;28;20444;-72
2022/11/03 01:07:31;;;;;;;6.00;3.20;;;;;;;;;;5112268;28;20477;-72
2022/11/03 01:09:58;;;;;;;5.10;3.83;;;;;;;;;;5112216;28;20456;-72
2022/11/03 01:12:25;;;;;;;6.30;2.77;;;;;;;;;;5111137;28;20803;-72
2022/11/03 01:14:53;;;;;;;5.90;2.40;;;;;;;;;;5111963;28;20929;-72
2022/11/03 01:17:21;;;;;;;5.00;2.77;;;;;;;;;;5111597;28;20452;-72
2022/11/03 01:19:48;;;;;;;2.50;2.10;;;;;;;;;;5112381;28;20488;-72
2022/11/03 01:22:17;;;;;;;5.73;3.30;;;;;;;;;;5112111;28;20976;-71
2022/11/03 01:24:45;;;;;;;4.57;2.20;;;;;;;;;;5113054;28;20478;-71
2022/11/03 01:27:13;;;;;;;5.63;3.90;;;;;;;;;;5114202;28;20455;-72
2022/11/03 01:29:40;;;;;;;4.10;3.57;;;;;;;;;;5114297;28;20450;-71
2022/11/03 01:32:08;;;;;;;5.23;2.60;;;;;;;;;;5114689;28;20452;-72
2022/11/03 01:34:35;;;;;;;7.10;2.20;;;;;;;;;;5116427;28;20456;-71
2022/11/03 01:37:02;;;;;;;7.10;2.30;;;;;;;;;;5115374;28;20457;-69
2022/11/03 01:39:30;;;;;;;3.17;2.60;;;;;;;;;;5116466;28;20447;-71
2022/11/03 01:41:58;;;;;;;5.90;2.70;;;;;;;;;;5117040;28;20472;-72
2022/11/03 01:44:33;;;;;;;2.70;2.10;;;;;;;;;;5116333;28;20477;-71
2022/11/03 01:47:02;;;;;;;3.33;2.37;;;;;;;;;;5117319;28;20870;-71
2022/11/03 01:49:32;;;;;;;3.93;2.97;;;;;;;;;;5117392;28;20474;-71
2022/11/03 01:52:01;;;;;;;2.90;1.83;;;;;;;;;;5116229;28;20515;-73
2022/11/03 01:54:30;;;;;;;3.73;2.17;;;;;;;;;;5111872;28;20448;-71
2022/11/03 01:57:00;;;;;;;3.30;2.43;;;;;;;;;;5111426;28;20960;-71
2022/11/03 01:59:28;;;;;;;2.40;2.20;;;;;;;;;;5111739;28;20456;-71
2022/11/03 02:01:55;;;;;;;4.50;2.70;;;;;;;;;;5110765;28;20932;-71
2022/11/03 02:04:24;;;;;;;2.90;2.20;;;;;;;;;;5110752;28;21167;-71
2022/11/03 02:06:54;;;;;;;5.07;2.90;;;;;;;;;;5111250;28;20456;-71
2022/11/03 02:09:21;;;;;;;5.47;2.53;;;;;;;;;;5110535;28;20441;-71
2022/11/03 02:12:07;;;;;;;3.60;2.00;;;;;;;;;;5110802;28;20448;-71
2022/11/03 02:14:36;;;;;;;3.40;2.53;;;;;;;;;;5111162;28;20930;-71
2022/11/03 02:17:05;;;;;;;2.67;2.47;;;;;;;;;;5110565;28;20454;-70
2022/11/03 02:19:33;;;;;;;4.23;2.93;;;;;;;;;;5111452;28;20788;-70
2022/11/03 02:22:05;;;;;;;8.17;2.10;;;;;;;;;;5111032;28;20445;-71
2022/11/03 02:24:38;;;;;;;3.10;2.07;;;;;;;;;;5111255;28;20475;-70
2022/11/03 02:27:06;;;;;;;3.20;1.87;;;;;;;;;;5110506;28;20448;-70
2022/11/03 02:29:33;;;;;;;7.47;2.30;;;;;;;;;;5111251;28;20451;-70
2022/11/03 02:32:05;;;;;;;3.80;2.83;;;;;;;;;;5110945;28;20449;-73
2022/11/03 02:34:36;;;;;;;4.07;2.63;;;;;;;;;;5111368;28;20451;-71
2022/11/03 02:37:06;;;;;;;7.03;2.53;;;;;;;;;;5110639;28;20444;-70
2022/11/03 02:39:36;;;;;;;6.60;2.50;;;;;;;;;;5111172;28;20445;-70
2022/11/03 02:42:05;;;;;;;6.00;2.80;;;;;;;;;;5111902;28;20459;-70
2022/11/03 02:44:34;;;;;;;5.80;3.07;;;;;;;;;;5114423;28;20518;-71
2022/11/03 02:47:03;;;;;;;4.07;2.13;;;;;;;;;;5115044;28;20477;-71
2022/11/03 02:49:30;;;;;;;2.93;2.20;;;;;;;;;;5114370;28;20489;-71
2022/11/03 02:52:01;;;;;;;14.40;2.13;;;;;;;;;;5113979;28;20439;-71
2022/11/03 02:54:31;;;;;;;3.53;2.50;;;;;;;;;;5114374;28;20453;-71
2022/11/03 02:57:02;;;;;;;4.90;1.77;;;;;;;;;;5114747;28;20540;-71
2022/11/03 02:59:31;;;;;;;5.40;1.87;;;;;;;;;;5114743;28;20447;-71
2022/11/03 03:02:02;;;;;;;4.27;2.57;;;;;;;;;;5113993;28;20448;-71
2022/11/03 03:04:31;;;;;;;2.60;2.00;;;;;;;;;;5114381;28;20478;-71
2022/11/03 03:07:01;;;;;;;4.73;2.23;;;;;;;;;;5113903;28;20459;-71
2022/11/03 03:09:30;;;;;;;3.20;2.20;;;;;;;;;;5114290;28;20434;-71
2022/11/03 03:11:59;;;;;;;11.27;2.20;;;;;;;;;;5114014;28;20449;-71
2022/11/03 03:14:29;;;;;;;2.23;1.60;;;;;;;;;;5113567;28;20457;-71
2022/11/03 03:17:00;;;;;;;6.90;2.60;;;;;;;;;;5113851;28;20453;-71
2022/11/03 03:19:36;;;;;;;5.30;2.30;;;;;;;;;;5114591;28;20446;-71
2022/11/03 03:22:08;;;;;;;2.50;1.37;;;;;;;;;;5113041;28;20959;-71
2022/11/03 03:24:38;;;;;;;2.90;2.17;;;;;;;;;;5113402;28;21009;-71
2022/11/03 03:27:07;;;;;;;2.83;2.37;;;;;;;;;;5113249;28;20445;-71
2022/11/03 03:29:37;;;;;;;2.40;2.00;;;;;;;;;;5113784;28;20927;-71
2022/11/03 03:32:07;;;;;;;5.13;2.70;;;;;;;;;;5112897;28;20454;-70
2022/11/03 03:34:38;;;;;;;2.67;2.37;;;;;;;;;;5113753;28;20535;-71
2022/11/03 03:37:05;;;;;;;2.33;1.80;;;;;;;;;;5113331;28;20450;-72
2022/11/03 03:39:34;;;;;;;3.90;1.93;;;;;;;;;;5099949;28;20959;-72
2022/11/03 03:42:03;;;;;;;3.70;2.23;;;;;;;;;;5113114;28;20453;-70
2022/11/03 03:44:30;;;;;;;1.57;1.20;;;;;;;;;;5113671;28;20482;-72
2022/11/03 03:47:00;;;;;;;4.70;2.20;;;;;;;;;;5113379;28;20547;-72
2022/11/03 03:49:27;;;;;;;6.07;1.90;;;;;;;;;;5113792;28;20484;-72
2022/11/03 03:51:56;;;;;;;2.50;1.80;;;;;;;;;;5113030;28;20479;-72
2022/11/03 03:54:23;;;;;;;3.20;2.53;;;;;;;;;;5111576;28;20970;-72
2022/11/03 03:56:54;;;;;;;5.03;2.30;;;;;;;;;;5113277;28;20445;-72
2022/11/03 03:59:21;;;;;;;4.00;2.03;;;;;;;;;;5112593;28;20456;-72
2022/11/03 04:01:48;;;;;;;2.83;2.23;;;;;;;;;;5112709;28;20451;-72
2022/11/03 04:04:15;;;;;;;3.27;2.07;;;;;;;;;;5112511;28;20483;-71
2022/11/03 04:06:42;;;;;;;4.20;2.23;;;;;;;;;;5113281;28;20454;-72
2022/11/03 04:09:10;;;;;;;2.27;1.80;;;;;;;;;;5112421;28;20456;-72
2022/11/03 04:22:48;;;;;;;3.43;1.80;;;7.90;99.90;;;;;;5112431;28;20442;-71
2022/11/03 04:25:16;;;;;;;5.20;3.20;;;7.80;99.90;;;;;;5112024;28;20481;-72
2022/11/03 04:27:43;;;;;;;4.10;2.13;;;7.90;99.90;;;;;;5112860;28;20445;-72
2022/11/03 04:30:15;;;;;;;4.63;2.27;;;;;;;;;;5112288;28;20442;-72
2022/11/03 04:32:42;;;;;;;2.73;1.77;;;;;;;;;;5112308;28;20444;-72
2022/11/03 04:35:17;;;;;;;2.80;2.00;;;;;;;;;;5112529;28;20455;-72
2022/11/03 04:37:44;;;;;;;5.13;2.10;;;;;;;;;;5112601;28;20785;-72
2022/11/03 04:40:16;;;;;;;6.13;1.67;;;7.90;99.90;;;;;;5111783;28;20447;-72
2022/11/03 04:42:44;;;;;;;4.80;2.83;;;7.20;99.90;;;;;;5098756;28;20447;-72
2022/11/03 04:45:23;;;;;;;4.27;2.30;;;7.00;99.90;;;;;;5111783;28;21214;-72
2022/11/03 04:47:51;;;;;;;4.40;2.03;;;7.20;99.90;;;;;;5112181;28;20932;-72
2022/11/03 04:50:20;;;;;;;3.03;2.20;;;7.10;99.90;;;;;;5111322;28;20478;-72
2022/11/03 04:52:47;;;;;;;1.63;1.47;;;7.10;99.90;;;;;;5112404;28;20785;-72
2022/11/03 04:55:17;;;;;;;4.70;2.30;;;7.10;99.90;;;;;;5111732;28;20453;-72
2022/11/03 04:57:45;;;;;;;2.43;2.20;;;7.00;99.90;;;;;;5112702;28;20524;-71
2022/11/03 05:00:17;;;;;;;5.03;2.47;;;7.00;99.90;;;;;;5111243;28;20537;-72
2022/11/03 05:02:44;;;;;;;6.40;3.30;;;7.00;99.90;;;;;;5111392;28;20453;-72
2022/11/03 05:05:19;;;;;;;3.33;2.60;;;7.00;99.90;;;;;;5111088;28;21021;-72
2022/11/03 05:07:48;;;;;;;3.17;2.67;;;7.10;99.90;;;;;;5112089;28;20444;-71
2022/11/03 05:10:19;;;;;;;7.30;2.80;;;7.10;99.90;;;;;;5111309;28;20868;-71
2022/11/03 05:12:47;;;;;;;8.27;2.97;;;7.10;99.90;;;;;;5105804;28;20450;-71
2022/11/03 05:15:29;;;;;;;3.97;2.73;;;7.30;99.90;;;;;;5110449;28;20449;-71
2022/11/03 05:17:58;;;;;;;3.03;2.10;;;7.20;99.90;;;;;;5111544;28;20475;-72
2022/11/03 05:20:31;;;;;;;3.10;2.37;;;7.20;99.90;;;;;;5111021;28;20530;-72
2022/11/03 05:22:58;;;;;;;4.30;2.83;;;7.10;99.90;;;;;;5111778;28;20445;-72
2022/11/03 05:25:45;;;;;;;5.57;2.80;;;7.10;99.90;;;;;;5110824;28;20522;-73
2022/11/03 05:28:23;;;;;;;4.97;3.10;;;7.00;99.90;;;;;;5098212;28;20455;-71
2022/11/03 05:30:51;;;;;;;4.13;2.93;;;7.00;99.90;;;;;;5111440;28;20470;-72
2022/11/03 05:33:25;;;;;;;11.10;3.13;;;7.00;99.90;;;;;;5111193;28;20459;-72
2022/11/03 05:35:52;;;;;;;4.83;3.53;;;7.00;99.90;;;;;;5111920;28;20793;-73
2022/11/03 05:38:21;;;;;;;11.57;2.97;;;7.10;99.90;;;;;;5111226;28;20460;-73
2022/11/03 05:40:53;;;;;;;3.40;2.70;;;7.00;99.90;;;;;;5111084;28;20474;-72
2022/11/03 05:43:21;;;;;;;15.10;2.93;;;6.90;99.90;;;;;;5110989;28;20460;-73
2022/11/03 05:45:49;;;;;;;2.57;2.17;;;6.80;99.90;;;;;;5111542;28;20503;-73
2022/11/03 05:48:29;;;;;;;5.27;2.73;;;6.80;99.90;;;;;;5110828;28;20957;-72
2022/11/03 05:50:59;;;;;;;5.10;2.13;;;6.70;99.90;;;;;;5111304;28;20472;-72
2022/11/03 05:53:30;;;;;;;2.90;2.13;;;6.60;99.90;;;;;;5110608;28;20781;-72
2022/11/03 05:56:00;;;;;;;3.00;2.00;;;6.50;99.90;;;;;;5111561;28;20797;-72
2022/11/03 05:58:30;;;;;;;3.57;2.40;;;6.50;99.90;;;;;;5111624;28;20459;-72
2022/11/03 06:00:58;;;;;;;3.23;2.30;;;6.40;99.90;;;;;;5110953;28;20789;-72
2022/11/03 06:03:27;;;;;;;2.80;2.27;;;6.40;99.90;;;;;;5110953;28;20789;-72
2022/11/03 06:05:55;;;;;;;6.50;3.23;;;6.40;99.90;;;;;;5111297;28;20976;-72
2022/11/03 06:08:25;;;;;;;2.90;2.10;;;6.30;99.90;;;;;;5110908;28;20451;-72
2022/11/03 06:10:54;;;;;;;5.20;3.03;;;6.30;99.90;;;;;;5111158;28;20442;-72
2022/11/03 06:13:26;;;;;;;4.00;3.17;;;6.30;99.90;;;;;;5110557;28;20879;-72
2022/11/03 06:15:59;;;;;;;4.07;2.13;;;6.20;99.90;;;;;;5111416;28;20461;-72
2022/11/03 06:18:30;;;;;;;3.73;2.20;;;6.20;99.90;;;;;;5101436;28;20454;-72
2022/11/03 06:21:03;;;;;;;2.93;2.33;;;6.40;99.90;;;;;;5114799;28;20482;-72
2022/11/03 06:23:32;;;;;;;3.77;2.97;;;6.30;99.90;;;;;;5115312;28;20525;-72
2022/11/03 06:26:01;;;;;;;3.33;2.50;;;6.50;99.90;;;;;;5115136;28;20493;-72
2022/11/03 06:28:31;;;;;;;4.13;2.63;;;;;;;;;;5115084;28;20513;-72
2022/11/03 06:30:58;;;;;;;8.20;2.53;;;;;;;;;;5114497;28;20451;-72
2022/11/03 06:33:26;;;;;;;3.70;2.40;;;;;;;;;;5114442;28;20816;-72
2022/11/03 06:35:55;;;;;;;3.73;2.13;;;6.60;99.90;;;;;;5114963;28;20463;-72
2022/11/03 06:38:24;;;;;;;3.70;2.70;;;6.50;99.90;;;;;;5114477;28;20695;-72
2022/11/03 06:40:52;;;;;;;2.40;1.63;;;6.50;99.90;;;;;;5114316;28;20857;-72
2022/11/03 06:43:21;;;;;;;3.57;2.67;;;6.50;99.90;;;;;;5114291;28;20478;-72
2022/11/03 06:45:52;;;;;;;8.03;2.57;;;6.30;99.90;;;;;;5114769;28;20594;-72
2022/11/03 06:48:29;;;;;;;5.50;3.00;;;6.40;99.90;;;;;;5114426;28;20455;-72
2022/11/03 06:50:57;;;;;;;4.40;2.57;;;6.40;99.90;;;;;;5113976;28;20509;-72
2022/11/03 06:53:27;;;;;;;3.63;2.40;;;6.30;99.90;;;;;;5114037;28;20447;-72
2022/11/03 06:55:55;;;;;;;3.10;2.07;;;6.30;99.90;;;;;;5114559;28;20487;-72
2022/11/03 06:58:26;;;;;;;3.27;2.97;;;6.50;99.90;;;;;;5113988;28;20451;-72
2022/11/03 07:00:56;;;;;;;6.43;3.40;;;6.40;99.90;;;;;;5114025;28;20468;-72
2022/11/03 07:03:27;;;;;;;4.53;2.73;;;6.50;99.90;;;;;;5113431;28;20935;-72
2022/11/03 07:06:00;;;;;;;3.60;2.30;;;6.50;99.90;;;;;;5114474;28;20876;-73
2022/11/03 07:08:30;;;;;;;3.80;2.80;;;6.50;99.90;;;;;;5114368;28;20439;-72
2022/11/03 07:11:01;;;;;;;3.67;2.03;;;6.60;99.90;;;;;;5114045;28;20447;-72
2022/11/03 07:13:30;;;;;;;2.80;2.30;;;6.80;99.90;;;;;;5114153;28;20441;-72
2022/11/03 07:15:58;;;;;;;8.43;2.40;;;6.80;99.90;;;;;;5114117;28;20889;-72
2022/11/03 07:18:29;;;;;;;5.07;2.03;;;6.90;99.90;;;;;;5099970;28;20934;-73
2022/11/03 07:20:57;;;;;;;3.13;2.40;;;7.00;99.90;;;;;;5113702;28;20454;-72
2022/11/03 07:23:28;;;;;;;8.50;3.03;;;7.20;99.90;;;;;;5113211;28;20457;-71
2022/11/03 07:25:58;;;;;;;4.80;3.90;;;7.50;99.90;;;;;;5113305;28;20473;-72
2022/11/03 07:28:29;;;;;;;6.00;2.07;;;7.50;99.90;;;;;;5112211;28;20453;-72
2022/11/03 07:30:58;;;;;;;4.87;2.63;;;7.70;99.90;;;;;;5113483;28;20441;-72
2022/11/03 07:33:29;;;;;;;6.10;4.60;;;7.80;99.90;;;;;;5113327;28;20809;-72
2022/11/03 07:35:57;;;;;;;5.10;2.87;;;7.80;99.90;;;;;;5113915;28;20570;-72
2022/11/03 07:38:26;;;;;;;5.90;3.20;;;7.90;99.90;;;;;;5113424;28;20539;-72
2022/11/03 07:40:56;;;;;;;5.10;2.70;;;7.90;99.90;;;;;;5113115;28;20454;-72
2022/11/03 07:43:25;;;;;;;4.00;2.83;;;7.90;99.90;;;;;;5113362;28;20455;-73
2022/11/03 07:45:53;;;;;;;2.67;2.00;;;7.90;99.90;;;;;;5113125;28;21084;-72
2022/11/03 07:48:25;;;;;;;3.23;2.30;;;8.00;99.90;;;;;;5112757;28;20894;-72
2022/11/03 07:50:53;;;;;;;6.83;2.67;;;8.10;99.90;;;;;;5112834;28;21016;-72
2022/11/03 07:53:22;;;;;;;5.10;2.27;;;;;;;;;;5112925;28;20448;-71
2022/11/03 07:55:49;;;;;;;3.77;2.53;;;;;;;;;;5113422;28;20440;-72
2022/11/03 07:58:21;;;;;;;6.43;2.47;;;;;;;;;;5112758;28;20455;-71
2022/11/03 08:00:48;;;;;;;2.53;2.33;;;;;;;;;;5112875;28;20455;-72
2022/11/03 08:03:22;;;;;;;3.80;2.83;;;;;;;;;;5112658;28;20780;-71
2022/11/03 08:05:50;;;;;;;3.50;2.97;;;;;;;;;;5112699;28;20514;-72
2022/11/03 08:08:17;;;;;;;5.70;2.53;;;;;;;;;;5112486;28;20448;-71
2022/11/03 08:10:45;;;;;;;3.93;2.50;;;;;;;;;;5112679;28;20535;-72
2022/11/03 08:13:12;;;;;;;7.90;3.10;;;;;;;;;;5112424;28;20870;-72
2022/11/03 08:15:39;;;;;;;6.30;3.37;;;;;;;;;;5112856;28;20542;-72
2022/11/03 08:18:06;;;;;;;2.43;2.13;;;;;;;;;;5112345;28;20444;-72
2022/11/03 08:20:33;;;;;;;3.87;2.53;;;8.30;99.90;;;;;;5112530;28;20452;-72
2022/11/03 08:23:01;;;;;;;4.20;2.90;;;9.40;99.90;;;;;;5113070;28;20440;-72
2022/11/03 08:25:28;;;;;;;5.17;2.50;;;9.40;99.90;;;;;;5112709;28;20480;-72
2022/11/03 08:27:55;;;;;;;5.67;2.10;;;9.50;99.90;;;;;;5112654;28;20444;-72
2022/11/03 08:30:21;;;;;;;2.57;1.93;;;9.60;99.90;;;;;;5111913;28;20454;-72
2022/11/03 08:32:48;;;;;;;3.40;1.63;;;9.70;99.90;;;;;;5112248;28;20455;-72
2022/11/03 08:35:15;;;;;;;3.77;2.30;;;9.80;99.90;;;;;;5111727;28;20467;-71
2022/11/03 08:37:42;;;;;;;2.63;2.10;;;9.90;87.60;;;;;;5112316;28;20456;-72
2022/11/03 08:40:12;;;;;;;8.33;2.77;;;10.00;39.60;;;;;;5111205;28;20445;-72
2022/11/03 08:42:38;;;;;;;2.70;1.93;;;10.00;16.80;;;;;;5112295;28;20444;-72
2022/11/03 08:45:06;;;;;;;5.00;2.27;;;10.10;1.00;;;;;;5111689;28;20485;-72
2022/11/03 08:47:33;;;;;;;3.73;2.20;;;10.20;1.00;;;;;;5112428;28;20446;-72
2022/11/03 08:50:00;;;;;;;4.37;2.00;;;10.30;1.00;;;;;;5112032;28;20537;-71
2022/11/03 08:52:27;;;;;;;3.23;2.40;;;10.30;1.00;;;;;;5112179;28;20449;-72
2022/11/03 08:54:54;;;;;;;2.80;2.20;;;10.50;1.00;;;;;;5112329;28;20818;-72
2022/11/03 08:57:22;;;;;;;4.30;2.23;;;10.60;1.00;;;;;;5111675;28;20453;-72
2022/11/03 08:59:51;;;;;;;3.30;2.30;;;10.70;1.00;;;;;;5112257;28;20458;-72
2022/11/03 09:02:18;;;;;;;2.60;1.70;;;10.80;1.00;;;;;;5111324;28;20516;-71
2022/11/03 09:04:45;;;;;;;4.30;1.43;;;10.90;1.00;;;;;;5112043;28;20460;-71
2022/11/03 09:07:11;;;;;;;2.30;1.50;;;10.90;1.00;;;;;;5111348;28;20442;-72
2022/11/03 09:09:38;;;;;;;4.50;1.63;;;11.00;1.00;;;;;;5112169;28;20449;-71
2022/11/03 09:12:06;;;;;;;3.87;1.90;;;11.00;99.90;;;;;;5110913;28;20811;-71
2022/11/03 09:14:34;;;;;;;2.23;1.70;;;11.10;99.90;;;;;;5111581;28;20460;-71
2022/11/03 09:17:00;;;;;;;2.37;1.87;;;11.20;99.90;;;;;;5111698;28;20961;-72
2022/11/03 09:19:27;;;;;;;2.57;1.13;;;11.30;64.00;;;;;;5111590;28;20451;-72
2022/11/03 09:21:54;;;;;;;2.77;1.77;;;11.40;99.90;;;;;;5111539;28;20450;-72
2022/11/03 09:24:21;;;;;;;2.90;1.90;;;11.40;1.00;;;;;;5110907;28;20681;-71
2022/11/03 09:26:48;;;;;;;2.63;1.47;;;11.60;28.70;;;;;;5111847;28;20510;-72
2022/11/03 09:29:15;;;;;;;2.93;1.60;;;11.60;1.00;;;;;;5111219;28;20455;-71
2022/11/03 09:31:43;;;;;;;2.80;1.83;;;11.70;1.00;;;;;;5111593;28;20452;-72
2022/11/03 09:34:10;;;;;;;6.73;2.30;;;11.80;1.00;;;;;;5111340;28;20446;-72
2022/11/03 09:36:37;;;;;;;2.50;1.73;;;11.90;99.90;;;;;;5111926;28;20458;-73
2022/11/03 09:39:04;;;;;;;2.63;1.67;;;12.00;99.90;;;;;;5111610;28;20712;-72
2022/11/03 09:41:32;;;;;;;2.47;2.10;;;12.10;99.90;;;;;;5113976;28;20466;-73
2022/11/03 09:43:59;;;;;;;11.13;2.57;;;12.10;1.00;;;;;;5111836;28;20518;-73
2022/11/03 09:46:28;;;;;;;6.17;1.50;;;12.10;1.00;;;;;;5111111;28;20587;-73
2022/11/03 09:48:56;;;;;;;3.80;1.80;;;12.20;99.90;;;;;;5111361;28;20879;-72
2022/11/03 09:51:25;;;;;;;2.50;1.73;;;12.20;99.90;;;;;;5111573;28;20965;-73
2022/11/03 09:53:52;;;;;;;2.50;1.33;;;12.30;96.80;;;;;;5115863;28;20450;-73
2022/11/03 09:56:22;;;;;;;2.60;1.53;;;12.30;99.90;;;;;;5114896;28;20443;-72
2022/11/03 09:58:49;;;;;;;2.57;1.57;;;12.40;1.00;;;;;;5115946;28;20442;-72
2022/11/03 10:01:16;;;;;;;2.83;1.77;;;12.40;99.90;;;;;;5114465;28;20436;-72
2022/11/03 10:03:43;;;;;;;1.60;1.03;;;12.50;1.00;;;;;;5115774;28;20435;-72
2022/11/03 10:06:12;;;;;;;3.00;1.80;;;12.50;1.00;;;;;;5115071;28;20483;-72
2022/11/03 10:08:41;;;;;;;1.90;1.23;;;12.60;99.90;;;;;;5115506;28;20440;-72
2022/11/03 10:11:09;;;;;;;3.87;1.50;;;12.50;1.00;;;;;;5114374;28;20443;-73
2022/11/03 10:13:39;;;;;;;2.20;1.60;;;12.60;1.00;;;;;;5115512;28;20439;-72
2022/11/03 10:16:08;;;;;;;6.53;1.77;;;12.70;1.00;;;;;;5115114;28;20869;-72
2022/11/03 10:18:36;;;;;;;2.50;1.70;;;12.70;1.00;;;;;;5114973;28;20452;-72
2022/11/03 10:21:05;;;;;;;3.73;1.57;;;12.70;1.00;;;;;;5114207;28;20444;-72
2022/11/03 10:23:33;;;;;;;2.57;1.37;;;12.70;1.00;;;;;;5115457;28;20443;-72
2022/11/03 10:26:09;;;;;;;5.43;1.60;;;12.80;1.00;;;;;;5115607;28;20471;-72
2022/11/03 10:28:37;;;;;;;3.00;1.77;;;12.80;1.00;;;;;;5114999;28;20910;-73
2022/11/03 10:31:07;;;;;;;2.67;1.53;;;12.90;99.90;;;;;;5113752;28;20922;-72
2022/11/03 10:33:36;;;;;;;1.47;1.37;;;12.90;99.90;;;;;;5115222;28;20446;-72
2022/11/03 10:36:04;;;;;;;2.13;1.70;;;12.90;99.90;;;;;;5114398;28;20440;-72
2022/11/03 10:38:33;;;;;;;3.43;1.47;;;12.80;1.00;;;;;;5115184;28;20439;-72
2022/11/03 10:41:12;;;;;;;2.80;1.33;;;12.80;99.90;;;;;;5114543;28;20492;-72
2022/11/03 10:43:39;;;;;;;2.03;1.30;;;12.90;99.90;;;;;;5114880;28;20435;-72
2022/11/03 10:46:11;;;;;;;2.03;1.70;;;12.90;99.90;;;;;;5114390;28;20483;-72
2022/11/03 10:48:38;;;;;;;2.97;1.40;;;12.90;1.00;;;;;;5114544;28;20447;-73
2022/11/03 10:51:06;;;;;;;1.83;1.53;;;12.90;1.00;;;;;;5113378;28;20467;-73
2022/11/03 10:53:34;;;;;;;3.50;1.60;;;12.90;1.00;;;;;;5114375;28;20451;-72
2022/11/03 10:56:01;;;;;;;3.67;1.70;;;12.90;99.90;;;;;;5114794;28;20449;-73
2022/11/03 10:58:28;;;;;;;4.97;1.67;;;13.00;99.90;;;;;;5114857;28;20440;-73
2022/11/03 11:00:54;;;;;;;2.27;1.53;;;13.00;1.00;;;;;;5113791;28;20919;-72
2022/11/03 11:03:21;;;;;;;2.43;1.37;;;13.00;1.00;;;;;;5113309;28;20975;-72
2022/11/03 11:05:49;;;;;;;2.70;2.03;;;13.20;99.90;;;;;;5114393;28;20978;-73
2022/11/03 11:08:23;;;;;;;2.10;1.60;;;13.30;99.90;;;;;;5113956;28;20442;-72
2022/11/03 11:10:51;;;;;;;3.00;1.60;;;13.20;99.90;;;;;;5113946;28;20435;-73
2022/11/03 11:13:29;;;;;;;6.13;2.17;;;13.40;99.90;;;;;;5113777;28;20440;-72
2022/11/03 11:15:58;;;;;;;1.83;1.40;;;13.40;1.00;;;;;;5114390;28;20491;-72
2022/11/03 11:19:13;;;;;;;1.90;1.50;;;13.50;1.00;;;;;;5113637;28;20455;-72
2022/11/03 11:21:58;;;;;;;1.80;1.07;;;13.50;1.00;;;;;;5113860;28;20433;-72
2022/11/03 11:24:57;;;;;;;2.60;1.57;;;13.50;99.90;;;;;;5113251;28;20447;-73
2022/11/03 11:28:05;;;;;;;3.63;1.70;;;13.50;1.00;;;;;;5113072;28;20710;-73
2022/11/03 11:31:24;;;;;;;3.30;1.80;;;13.70;1.00;;;;;;5103036;28;20465;-72
2022/11/03 11:34:26;;;;;;;1.97;1.40;;;13.80;1.00;;;;;;5107066;28;20448;-72
2022/11/03 11:37:26;;;;;;;3.70;1.43;;;13.80;1.00;;;;;;5112169;28;20470;-73
2022/11/03 11:39:53;;;;;;;2.57;1.60;;;13.90;1.00;;;;;;5113384;28;20444;-72
2022/11/03 11:42:21;;;;;;;3.30;1.63;;;13.90;99.90;;;;;;5112713;28;20462;-72
2022/11/03 11:44:56;;;;;;;4.57;1.37;;;13.70;1.00;;;;;;5113754;28;20478;-73
2022/11/03 11:47:42;;;;;;;2.97;1.40;;;13.70;1.00;;;;;;5113022;27;20470;-73
2022/11/03 11:50:31;;;;;;;1.70;1.47;;;13.70;1.00;;;;;;5112464;28;21043;-73
2022/11/03 11:53:02;;;;;;;2.33;1.43;;;13.80;99.90;;;;;;5113716;28;20437;-73
2022/11/03 11:55:34;;;;;;;3.50;2.03;;;14.00;1.00;;;;;;5113518;28;20447;-73
2022/11/03 11:58:03;;;;;;;2.43;1.73;;;13.90;1.00;;;;;;5113063;28;20546;-72
2022/11/03 12:00:32;;;;;;;4.73;1.47;;;14.00;99.90;;;;;;5112748;28;20452;-73
2022/11/03 12:03:02;;;;;;;2.90;1.50;;;14.00;1.00;;;;;;5113548;28;20798;-73
2022/11/03 12:05:31;;;;;;;4.33;2.10;;;14.10;1.00;;;;;;5100187;28;20461;-73
2022/11/03 12:07:59;;;;;;;3.33;1.47;;;14.00;99.90;;;;;;5113243;28;20452;-73
2022/11/03 12:10:27;;;;;;;6.20;2.90;;;14.10;99.90;;;;;;5112145;28;20456;-73
2022/11/03 12:12:55;;;;;;;1.83;1.60;;;14.10;99.90;;;;;;5112599;28;20448;-73
2022/11/03 12:15:54;;;;;;;1.30;1.20;;;14.20;99.90;;;;;;5111790;28;20456;-73
2022/11/03 12:18:36;;;;;;;3.43;1.43;;;14.10;99.90;;;;;;5112317;28;20444;-73
2022/11/03 12:21:05;;;;;;;1.67;1.47;;;14.10;99.90;;;;;;5110188;28;20460;-72
2022/11/03 12:23:49;;;;;;;1.50;1.37;;;14.20;99.90;;;;;;5110928;28;20485;-72
2022/11/03 12:26:18;;;;;;;4.53;1.27;;;14.20;1.00;;;;;;5109989;28;20471;-73
2022/11/03 12:28:45;;;;;;;1.70;1.43;;;14.10;86.20;;;;;;5110112;28;20456;-72
2022/11/03 12:31:12;;;;;;;3.97;1.70;;;14.10;99.90;;;;;;5105294;28;20437;-73
2022/11/03 12:33:40;;;;;;;5.90;1.87;;;14.00;1.00;;;;;;5111920;28;20452;-73
2022/11/03 12:36:08;;;;;;;1.90;1.20;;;14.10;1.00;;;;;;5098739;28;20444;-72
2022/11/03 12:38:35;;;;;;;3.90;1.83;;;14.00;1.00;;;;;;5111798;28;20451;-73
2022/11/03 12:41:20;;;;;;;1.80;1.50;;;14.00;1.00;;;;;;5110982;28;20448;-70
2022/11/03 12:43:47;;;;;;;5.43;1.60;;;14.00;99.90;;;;;;5111558;28;20443;-72
2022/11/03 12:46:15;;;;;;;2.07;1.40;;;14.10;1.00;;;;;;5110772;28;20488;-73
2022/11/03 12:48:43;;;;;;;2.87;1.60;;;14.10;1.00;;;;;;5107130;28;20454;-73
2022/11/03 12:51:11;;;;;;;1.90;1.53;;;14.10;99.90;;;;;;5110363;28;20507;-73
2022/11/03 12:53:39;;;;;;;2.10;1.57;;;14.10;12.00;;;;;;5111352;28;20535;-73
2022/11/03 12:56:06;;;;;;;2.43;1.70;;;14.00;1.00;;;;;;5110959;28;20797;-73
2022/11/03 12:58:32;;;;;;;3.70;2.40;;;14.00;99.90;;;;;;5111562;28;20452;-72
2022/11/03 13:00:59;;;;;;;3.57;2.00;;;13.90;1.00;;;;;;5111324;28;20458;-73
2022/11/03 13:03:27;;;;;;;2.80;2.03;;;13.90;13.10;;;;;;5111012;28;20455;-72
2022/11/03 13:05:55;;;;;;;7.50;2.97;;;13.90;83.60;;;;;;5111364;28;20974;-73
2022/11/03 13:08:22;;;;;;;2.57;1.70;;;13.90;1.00;;;;;;5110813;28;20456;-73
2022/11/03 13:10:48;;;;;;;4.33;1.80;;;13.90;10.40;;;;;;5110701;28;20957;-72
2022/11/03 13:13:15;;;;;;;4.93;2.30;;;13.90;99.90;;;;;;5110821;28;20455;-73
2022/11/03 13:15:42;;;;;;;2.50;1.53;;;13.90;99.90;;;;;;5111139;28;20459;-73
2022/11/03 13:18:09;;;;;;;2.70;1.90;;;13.90;99.90;;;;;;5110867;28;20755;-73
2022/11/03 13:20:37;;;;;;;2.07;1.87;;;13.90;1.00;;;;;;5110929;28;20455;-73
2022/11/03 13:23:05;;;;;;;2.70;2.00;;;13.90;99.90;;;;;;5107569;28;20515;-73
2022/11/03 13:25:33;;;;;;;2.90;2.17;;;13.80;1.00;;;;;;5100696;28;21154;-72
2022/11/03 13:28:01;;;;;;;7.33;2.03;;;13.90;1.00;;;;;;5111050;28;20860;-72
2022/11/03 13:30:28;;;;;;;3.13;1.90;;;13.80;1.00;;;;;;5110833;28;20448;-73
2022/11/03 13:32:55;;;;;;;3.97;2.43;;;13.90;99.90;;;;;;5110181;28;20958;-73
2022/11/03 13:35:22;;;;;;;4.80;2.50;;;13.90;1.00;;;;;;5110809;28;20448;-73
2022/11/03 13:37:49;;;;;;;3.80;2.77;;;13.90;1.00;;;;;;5110624;28;20454;-73
2022/11/03 13:40:17;;;;;;;3.07;2.13;;;13.90;99.90;;;;;;5110404;28;20456;-73
2022/11/03 13:42:44;;;;;;;5.80;2.57;;;13.90;99.90;;;;;;5097521;28;20475;-73
2022/11/03 13:45:11;;;;;;;3.73;2.73;;;13.80;99.90;;;;;;5109350;28;20451;-72
2022/11/03 13:47:38;;;;;;;5.47;2.20;;;13.80;99.90;;;;;;5110309;28;20483;-73
2022/11/03 13:50:06;;;;;;;3.27;2.47;;;13.90;1.00;;;;;;5109751;28;20532;-72
2022/11/03 13:52:33;;;;;;;4.17;3.10;;;13.80;1.00;;;;;;5110738;28;20444;-73
2022/11/03 13:55:00;;;;;;;4.30;2.60;;;13.90;99.90;;;;;;5110857;28;20444;-73
2022/11/03 13:57:28;;;;;;;5.90;2.77;;;13.80;99.90;;;;;;5110429;28;20797;-73
2022/11/03 13:59:55;;;;;;;3.63;2.43;;;13.80;99.90;;;;;;5110425;28;20684;-73